createdAt,value
2022-10-13T00:00:45.319Z,14.73
2022-10-13T00:01:46.871Z,14.73
2022-10-13T00:02:48.575Z,14.68
2022-10-13T00:03:51.139Z,14.66
2022-10-13T00:04:53.936Z,14.60
2022-10-13T00:05:55.468Z,14.53
2022-10-13T00:06:56.972Z,14.49
2022-10-13T00:07:58.757Z,14.49
2022-10-13T00:09:00.342Z,14.49
2022-10-13T00:10:01.928Z,14.44
2022-10-13T00:11:19.355Z,14.45
2022-10-13T00:12:21.104Z,14.47
2022-10-13T00:13:22.838Z,14.55
2022-10-13T00:14:24.366Z,14.60
2022-10-13T00:15:26.088Z,14.57
2022-10-13T00:16:29.250Z,14.54
2022-10-13T00:17:30.766Z,14.54
2022-10-13T00:18:32.489Z,14.55
2022-10-13T00:19:34.081Z,14.57
2022-10-13T00:20:36.597Z,14.55
2022-10-13T00:21:38.181Z,14.60
2022-10-13T00:22:39.735Z,14.63
2022-10-13T00:23:41.889Z,14.64
2022-10-13T00:24:43.381Z,14.65
2022-10-13T00:25:48.010Z,14.65
2022-10-13T00:26:51.056Z,14.62
2022-10-13T00:27:52.649Z,14.56
2022-10-13T00:28:55.773Z,14.54
2022-10-13T00:29:57.368Z,14.53
2022-10-13T00:30:59.377Z,14.44
2022-10-13T00:32:01.047Z,14.37
2022-10-13T00:33:02.711Z,14.38
2022-10-13T00:34:04.263Z,14.35
2022-10-13T00:35:05.952Z,14.28
2022-10-13T00:36:07.643Z,14.20
2022-10-13T00:37:09.452Z,14.13
2022-10-13T00:38:11.674Z,14.02
2022-10-13T00:39:13.309Z,13.95
2022-10-13T00:40:14.837Z,13.88
2022-10-13T00:41:16.664Z,13.87
2022-10-13T00:42:18.446Z,13.91
2022-10-13T00:43:26.438Z,13.88
2022-10-13T00:45:01.285Z,13.84
2022-10-13T00:46:02.831Z,13.79
2022-10-13T00:47:04.415Z,13.69
2022-10-13T00:48:06.219Z,13.69
2022-10-13T00:49:14.197Z,13.79
2022-10-13T00:50:20.069Z,13.88
2022-10-13T00:51:25.882Z,14.04
2022-10-13T00:52:28.430Z,14.20
2022-10-13T00:53:34.551Z,14.30
2022-10-13T00:54:36.132Z,14.37
2022-10-13T00:55:40.189Z,14.37
2022-10-13T00:56:42.988Z,14.37
2022-10-13T00:57:47.669Z,14.42
2022-10-13T00:58:49.845Z,14.49
2022-10-13T00:59:51.914Z,14.62
2022-10-13T01:00:53.893Z,14.66
2022-10-13T01:01:57.766Z,14.72
2022-10-13T01:02:59.304Z,14.69
2022-10-13T01:04:01.263Z,14.63
2022-10-13T01:05:04.122Z,14.61
2022-10-13T01:06:07.259Z,14.61
2022-10-13T01:07:09.364Z,14.64
2022-10-13T01:08:11.697Z,14.66
2022-10-13T01:09:13.562Z,14.70
2022-10-13T01:10:24.880Z,14.68
2022-10-13T01:11:42.840Z,14.67
2022-10-13T01:13:12.003Z,14.60
2022-10-13T01:14:33.577Z,14.48
2022-10-13T01:15:47.211Z,14.34
2022-10-13T01:17:15.583Z,14.31
2022-10-13T01:18:25.905Z,14.30
2022-10-13T01:19:33.285Z,14.20
2022-10-13T01:20:57.730Z,14.15
2022-10-13T01:22:32.974Z,14.17
2022-10-13T01:23:53.063Z,14.17
2022-10-13T01:25:12.253Z,14.08
2022-10-13T01:26:41.307Z,14.03
2022-10-13T01:28:01.265Z,13.99
2022-10-13T01:29:40.305Z,13.97
2022-10-13T01:31:02.164Z,13.95
2022-10-13T01:32:19.917Z,13.89
2022-10-13T01:33:35.282Z,13.87
2022-10-13T01:34:48.117Z,13.86
2022-10-13T01:36:05.423Z,13.86
2022-10-13T01:37:44.472Z,13.85
2022-10-13T01:39:14.804Z,13.87
2022-10-13T01:40:27.640Z,13.91
2022-10-13T01:41:38.381Z,13.86
2022-10-13T01:43:04.230Z,13.82
2022-10-13T01:44:23.134Z,13.82
2022-10-13T01:45:31.730Z,13.85
2022-10-13T01:46:37.521Z,13.87
2022-10-13T01:47:39.895Z,13.83
2022-10-13T01:48:44.723Z,13.82
2022-10-13T01:49:47.119Z,13.85
2022-10-13T01:50:50.511Z,13.80
2022-10-13T01:51:52.478Z,13.78
2022-10-13T01:52:54.786Z,13.78
2022-10-13T01:53:56.359Z,13.78
2022-10-13T01:54:57.888Z,13.78
2022-10-13T01:56:00.513Z,13.78
2022-10-13T01:57:02.380Z,13.78
2022-10-13T01:58:03.950Z,13.79
2022-10-13T01:59:10.420Z,13.85
2022-10-13T02:00:18.802Z,13.93
2022-10-13T02:01:30.253Z,14.09
2022-10-13T02:03:09.653Z,14.17
2022-10-13T02:04:36.865Z,14.25
2022-10-13T02:05:57.691Z,14.32
2022-10-13T02:07:11.064Z,14.31
2022-10-13T02:08:37.154Z,14.28
2022-10-13T02:09:47.618Z,14.21
2022-10-13T02:11:13.935Z,14.13
2022-10-13T02:12:22.979Z,14.06
2022-10-13T02:13:28.029Z,13.99
2022-10-13T02:14:33.101Z,13.96
2022-10-13T02:15:43.610Z,13.93
2022-10-13T02:16:47.141Z,13.93
2022-10-13T02:17:49.753Z,13.91
2022-10-13T02:18:51.636Z,13.89
2022-10-13T02:19:54.100Z,13.91
2022-10-13T02:20:56.111Z,13.96
2022-10-13T02:21:58.765Z,14.02
2022-10-13T02:23:04.911Z,13.98
2022-10-13T02:24:07.075Z,13.87
2022-10-13T02:25:09.259Z,13.82
2022-10-13T02:26:11.331Z,13.81
2022-10-13T02:27:13.475Z,13.74
2022-10-13T02:28:15.959Z,13.66
2022-10-13T02:29:18.958Z,13.66
2022-10-13T02:30:23.974Z,13.70
2022-10-13T02:31:25.523Z,13.74
2022-10-13T02:32:27.242Z,13.79
2022-10-13T02:33:29.062Z,13.75
2022-10-13T02:34:30.723Z,13.74
2022-10-13T02:35:33.060Z,13.74
2022-10-13T02:36:34.879Z,13.73
2022-10-13T02:37:36.475Z,13.71
2022-10-13T02:38:38.274Z,13.66
2022-10-13T02:39:40.045Z,13.62
2022-10-13T02:40:41.586Z,13.63
2022-10-13T02:41:43.129Z,13.65
2022-10-13T02:42:44.928Z,13.68
2022-10-13T02:43:46.475Z,13.68
2022-10-13T02:44:48.013Z,13.69
2022-10-13T02:45:49.533Z,13.77
2022-10-13T02:46:51.038Z,13.74
2022-10-13T02:47:52.789Z,13.73
2022-10-13T02:48:54.341Z,13.66
2022-10-13T02:49:55.990Z,13.63
2022-10-13T02:50:57.621Z,13.55
2022-10-13T02:51:59.137Z,13.53
2022-10-13T02:53:00.765Z,13.56
2022-10-13T02:54:02.281Z,13.56
2022-10-13T02:55:04.710Z,13.54
2022-10-13T02:56:06.602Z,13.53
2022-10-13T02:57:08.142Z,13.52
2022-10-13T02:58:09.731Z,13.52
2022-10-13T02:59:12.126Z,13.54
2022-10-13T03:00:14.595Z,13.44
2022-10-13T03:01:16.580Z,13.38
2022-10-13T03:02:19.207Z,13.33
2022-10-13T03:03:21.024Z,13.30
2022-10-13T03:04:22.582Z,13.23
2022-10-13T03:05:24.149Z,13.20
2022-10-13T03:06:25.661Z,13.24
2022-10-13T03:07:27.343Z,13.22
2022-10-13T03:08:29.008Z,13.19
2022-10-13T03:09:30.681Z,13.17
2022-10-13T03:10:32.598Z,13.19
2022-10-13T03:11:34.278Z,13.24
2022-10-13T03:12:35.817Z,13.22
2022-10-13T03:13:37.721Z,13.21
2022-10-13T03:14:39.269Z,13.18
2022-10-13T03:15:40.805Z,13.16
2022-10-13T03:16:42.441Z,13.15
2022-10-13T03:17:44.098Z,13.18
2022-10-13T03:18:45.679Z,13.17
2022-10-13T03:19:47.197Z,13.21
2022-10-13T03:21:00.588Z,13.23
2022-10-13T03:22:02.107Z,13.20
2022-10-13T03:23:03.744Z,13.26
2022-10-13T03:24:06.234Z,13.21
2022-10-13T03:25:08.497Z,13.13
2022-10-13T03:26:10.357Z,13.05
2022-10-13T03:27:12.238Z,13.02
2022-10-13T03:28:14.127Z,13.06
2022-10-13T03:29:17.203Z,13.14
2022-10-13T03:30:19.286Z,13.26
2022-10-13T03:31:20.864Z,13.35
2022-10-13T03:32:22.707Z,13.42
2022-10-13T03:33:24.425Z,13.51
2022-10-13T03:34:25.979Z,13.59
2022-10-13T03:35:27.488Z,13.65
2022-10-13T03:36:29.084Z,13.71
2022-10-13T03:37:30.787Z,13.73
2022-10-13T03:38:34.472Z,13.79
2022-10-13T03:39:35.985Z,13.83
2022-10-13T03:40:37.522Z,13.87
2022-10-13T03:41:40.689Z,13.88
2022-10-13T03:42:42.392Z,13.93
2022-10-13T03:43:45.305Z,13.96
2022-10-13T03:44:50.387Z,13.97
2022-10-13T03:45:59.989Z,14.01
2022-10-13T03:47:01.619Z,14.07
2022-10-13T03:48:03.337Z,14.09
2022-10-13T03:49:05.135Z,14.15
2022-10-13T03:50:07.435Z,14.19
2022-10-13T03:51:15.149Z,14.22
2022-10-13T03:52:16.863Z,14.25
2022-10-13T03:53:19.159Z,14.29
2022-10-13T03:54:20.683Z,14.33
2022-10-13T03:55:22.233Z,14.36
2022-10-13T03:56:26.669Z,14.39
2022-10-13T03:57:28.584Z,14.40
2022-10-13T03:58:30.454Z,14.39
2022-10-13T03:59:36.601Z,14.38
2022-10-13T04:00:38.900Z,14.32
2022-10-13T04:01:40.747Z,14.27
2022-10-13T04:02:42.647Z,14.31
2022-10-13T04:03:44.175Z,14.36
2022-10-13T04:04:45.679Z,14.38
2022-10-13T04:05:47.799Z,14.33
2022-10-13T04:06:49.325Z,14.20
2022-10-13T04:07:50.843Z,14.14
2022-10-13T04:08:52.761Z,14.14
2022-10-13T04:09:54.286Z,14.20
2022-10-13T04:11:04.190Z,14.28
2022-10-13T04:12:06.039Z,14.28
2022-10-13T04:13:08.296Z,14.20
2022-10-13T04:14:09.991Z,14.21
2022-10-13T04:15:11.613Z,14.24
2022-10-13T04:16:16.239Z,14.32
2022-10-13T04:17:17.819Z,14.40
2022-10-13T04:18:19.339Z,14.39
2022-10-13T04:19:20.881Z,14.40
2022-10-13T04:20:22.525Z,14.45
2022-10-13T04:21:25.237Z,14.47
2022-10-13T04:22:26.751Z,14.50
2022-10-13T04:23:28.334Z,14.50
2022-10-13T04:24:29.897Z,14.48
2022-10-13T04:25:31.445Z,14.47
2022-10-13T04:26:35.558Z,14.47
2022-10-13T04:27:39.216Z,14.49
2022-10-13T04:28:40.809Z,14.50
2022-10-13T04:29:42.595Z,14.54
2022-10-13T04:30:48.543Z,14.60
2022-10-13T04:31:50.986Z,14.60
2022-10-13T04:32:52.567Z,14.64
2022-10-13T04:33:54.133Z,14.59
2022-10-13T04:34:55.648Z,14.59
2022-10-13T04:35:57.412Z,14.55
2022-10-13T04:36:58.965Z,14.61
2022-10-13T04:38:01.114Z,14.62
2022-10-13T04:39:02.747Z,14.70
2022-10-13T04:40:04.682Z,14.72
2022-10-13T04:41:07.390Z,14.69
2022-10-13T04:42:08.929Z,14.66
2022-10-13T04:43:10.472Z,14.60
2022-10-13T04:44:12.035Z,14.62
2022-10-13T04:45:13.565Z,14.54
2022-10-13T04:46:18.996Z,14.48
2022-10-13T04:47:20.538Z,14.37
2022-10-13T04:48:22.076Z,14.23
2022-10-13T04:49:24.464Z,14.19
2022-10-13T04:50:26.009Z,14.11
2022-10-13T04:51:27.620Z,14.05
2022-10-13T04:52:29.155Z,14.02
2022-10-13T04:53:31.753Z,14.01
2022-10-13T04:54:33.277Z,14.02
2022-10-13T04:55:38.070Z,14.00
2022-10-13T04:56:39.634Z,13.94
2022-10-13T04:57:41.263Z,13.88
2022-10-13T04:58:45.158Z,13.88
2022-10-13T04:59:47.093Z,13.89
2022-10-13T05:00:48.671Z,13.86
2022-10-13T05:01:50.331Z,13.84
2022-10-13T05:02:52.021Z,13.83
2022-10-13T05:03:55.007Z,13.82
2022-10-13T05:04:56.519Z,13.80
2022-10-13T05:05:58.128Z,13.76
2022-10-13T05:07:17.041Z,13.66
2022-10-13T05:08:20.454Z,13.63
2022-10-13T05:09:22.565Z,13.69
2022-10-13T05:10:24.119Z,13.71
2022-10-13T05:11:27.208Z,13.70
2022-10-13T05:12:28.869Z,13.66
2022-10-13T05:13:30.558Z,13.67
2022-10-13T05:14:33.366Z,13.73
2022-10-13T05:15:35.043Z,13.80
2022-10-13T05:16:36.606Z,13.85
2022-10-13T05:17:38.140Z,13.93
2022-10-13T05:18:40.008Z,13.96
2022-10-13T05:19:41.557Z,13.91
2022-10-13T05:20:43.063Z,13.89
2022-10-13T05:21:44.788Z,13.89
2022-10-13T05:22:46.478Z,13.92
2022-10-13T05:23:48.439Z,14.00
2022-10-13T05:24:49.966Z,14.07
2022-10-13T05:25:51.485Z,14.13
2022-10-13T05:26:53.035Z,14.18
2022-10-13T05:27:54.844Z,14.28
2022-10-13T05:28:57.117Z,14.32
2022-10-13T05:29:58.621Z,14.34
2022-10-13T05:31:10.964Z,14.33
2022-10-13T05:32:12.675Z,14.36
2022-10-13T05:33:14.225Z,14.34
2022-10-13T05:34:15.750Z,14.31
2022-10-13T05:35:17.269Z,14.23
2022-10-13T05:36:22.043Z,14.19
2022-10-13T05:37:23.614Z,14.17
2022-10-13T05:38:26.170Z,14.18
2022-10-13T05:39:28.268Z,14.22
2022-10-13T05:40:32.344Z,14.26
2022-10-13T05:41:33.903Z,14.32
2022-10-13T05:42:36.120Z,14.37
2022-10-13T05:43:39.404Z,14.42
2022-10-13T05:44:40.928Z,14.42
2022-10-13T05:45:42.476Z,14.46
2022-10-13T05:46:44.503Z,14.51
2022-10-13T05:47:46.067Z,14.56
2022-10-13T05:48:47.748Z,14.58
2022-10-13T05:49:49.309Z,14.63
2022-10-13T05:50:51.099Z,14.68
2022-10-13T05:51:57.210Z,14.71
2022-10-13T05:52:58.742Z,14.69
2022-10-13T05:54:25.571Z,14.68
2022-10-13T05:55:27.131Z,14.65
2022-10-13T05:56:32.995Z,14.66
2022-10-13T05:57:41.436Z,14.71
2022-10-13T05:58:48.336Z,14.74
2022-10-13T06:00:10.277Z,14.73
2022-10-13T06:01:16.451Z,14.76
2022-10-13T06:02:22.504Z,14.77
2022-10-13T06:03:24.268Z,14.79
2022-10-13T06:04:38.851Z,14.81
2022-10-13T06:05:43.151Z,14.83
2022-10-13T06:06:45.335Z,14.82
2022-10-13T06:07:48.182Z,14.79
2022-10-13T06:08:50.947Z,14.78
2022-10-13T06:09:52.680Z,14.75
2022-10-13T06:10:54.253Z,14.72
2022-10-13T06:11:55.805Z,14.69
2022-10-13T06:12:57.351Z,14.68
2022-10-13T06:13:58.945Z,14.72
2022-10-13T06:15:00.471Z,14.72
2022-10-13T06:16:02.189Z,14.69
2022-10-13T06:17:04.125Z,14.70
2022-10-13T06:18:10.447Z,14.71
2022-10-13T06:19:11.954Z,14.70
2022-10-13T06:20:13.496Z,14.71
2022-10-13T06:21:15.028Z,14.66
2022-10-13T06:22:16.650Z,14.67
2022-10-13T06:23:18.293Z,14.67
2022-10-13T06:24:19.853Z,14.72
2022-10-13T06:25:21.431Z,14.69
2022-10-13T06:26:23.019Z,14.72
2022-10-13T06:27:24.675Z,14.74
2022-10-13T06:28:27.352Z,14.75
2022-10-13T06:29:28.954Z,14.73
2022-10-13T06:30:30.659Z,14.73
2022-10-13T06:31:32.249Z,14.73
2022-10-13T06:32:34.233Z,14.71
2022-10-13T06:33:35.795Z,14.68
2022-10-13T06:34:37.347Z,14.72
2022-10-13T06:35:38.871Z,14.72
2022-10-13T06:36:41.789Z,14.72
2022-10-13T06:37:43.702Z,14.77
2022-10-13T06:38:45.317Z,14.77
2022-10-13T06:39:46.927Z,14.78
2022-10-13T06:40:48.800Z,14.78
2022-10-13T06:41:50.955Z,14.75
2022-10-13T06:42:52.582Z,14.76
2022-10-13T06:43:54.305Z,14.79
2022-10-13T06:44:55.937Z,14.85
2022-10-13T06:45:59.562Z,14.85
2022-10-13T06:47:03.080Z,14.89
2022-10-13T06:48:04.967Z,14.92
2022-10-13T06:49:06.573Z,14.96
2022-10-13T06:50:08.469Z,14.97
2022-10-13T06:51:11.944Z,14.98
2022-10-13T06:52:13.475Z,14.97
2022-10-13T06:53:15.058Z,15.01
2022-10-13T06:54:16.692Z,15.00
2022-10-13T06:55:18.316Z,15.00
2022-10-13T06:56:19.887Z,15.00
2022-10-13T06:57:21.445Z,14.97
2022-10-13T06:58:22.984Z,14.99
2022-10-13T06:59:26.452Z,14.96
2022-10-13T07:00:30.254Z,14.95
2022-10-13T07:01:31.833Z,14.94
2022-10-13T07:02:33.397Z,14.94
2022-10-13T07:03:35.967Z,14.88
2022-10-13T07:04:37.546Z,14.81
2022-10-13T07:05:39.051Z,14.85
2022-10-13T07:06:41.100Z,14.91
2022-10-13T07:07:42.877Z,14.93
2022-10-13T07:08:44.509Z,14.96
2022-10-13T07:09:46.080Z,14.99
2022-10-13T07:10:47.945Z,15.01
2022-10-13T07:11:50.238Z,15.05
2022-10-13T07:12:51.764Z,15.07
2022-10-13T07:13:54.095Z,15.09
2022-10-13T07:14:55.611Z,15.11
2022-10-13T07:15:57.123Z,15.14
2022-10-13T07:16:58.711Z,15.16
2022-10-13T07:18:00.271Z,15.00
2022-10-13T07:19:01.794Z,14.88
2022-10-13T07:20:07.226Z,14.84
2022-10-13T07:21:09.714Z,14.87
2022-10-13T07:22:11.243Z,14.96
2022-10-13T07:23:12.813Z,15.05
2022-10-13T07:24:14.354Z,15.01
2022-10-13T07:25:16.240Z,15.01
2022-10-13T07:26:17.841Z,15.01
2022-10-13T07:27:19.535Z,15.04
2022-10-13T07:28:21.440Z,15.09
2022-10-13T07:29:23.091Z,15.16
2022-10-13T07:30:24.716Z,15.19
2022-10-13T07:31:26.825Z,15.30
2022-10-13T07:32:28.342Z,15.36
2022-10-13T07:33:30.153Z,15.39
2022-10-13T07:34:31.704Z,15.46
2022-10-13T07:35:33.551Z,15.49
2022-10-13T07:36:35.610Z,15.51
2022-10-13T07:37:38.611Z,15.52
2022-10-13T07:38:40.400Z,15.51
2022-10-13T07:39:41.957Z,15.37
2022-10-13T07:40:43.471Z,15.07
2022-10-13T07:41:48.769Z,14.96
2022-10-13T07:42:52.543Z,14.86
2022-10-13T07:43:57.672Z,14.76
2022-10-13T07:44:59.285Z,14.72
2022-10-13T07:46:04.720Z,14.69
2022-10-13T07:47:06.236Z,14.70
2022-10-13T07:48:07.805Z,14.79
2022-10-13T07:49:12.370Z,14.91
2022-10-13T07:50:17.068Z,15.03
2022-10-13T07:51:18.640Z,15.10
2022-10-13T07:52:20.540Z,15.09
2022-10-13T07:53:22.526Z,15.12
2022-10-13T07:54:25.183Z,15.19
2022-10-13T07:55:28.939Z,15.14
2022-10-13T07:56:30.564Z,15.09
2022-10-13T07:57:32.193Z,15.10
2022-10-13T07:58:36.721Z,15.11
2022-10-13T07:59:38.498Z,15.11
2022-10-13T08:00:40.072Z,15.19
2022-10-13T08:01:41.684Z,15.22
2022-10-13T08:02:43.316Z,15.25
2022-10-13T08:03:49.146Z,15.20
2022-10-13T08:04:52.212Z,15.02
2022-10-13T08:05:54.427Z,15.01
2022-10-13T08:06:55.981Z,15.06
2022-10-13T08:07:58.570Z,15.02
2022-10-13T08:09:00.673Z,15.00
2022-10-13T08:10:02.349Z,15.08
2022-10-13T08:11:06.776Z,15.09
2022-10-13T08:12:08.589Z,15.16
2022-10-13T08:13:11.262Z,15.12
2022-10-13T08:14:13.460Z,15.19
2022-10-13T08:15:18.971Z,15.28
2022-10-13T08:16:20.877Z,15.36
2022-10-13T08:17:22.711Z,15.33
2022-10-13T08:18:24.403Z,15.16
2022-10-13T08:19:26.595Z,15.14
2022-10-13T08:20:41.007Z,15.07
2022-10-13T08:22:01.794Z,14.97
2022-10-13T08:23:03.444Z,15.01
2022-10-13T08:24:06.787Z,15.00
2022-10-13T08:25:08.750Z,14.97
2022-10-13T08:26:25.988Z,15.09
2022-10-13T08:27:42.231Z,15.19
2022-10-13T08:29:09.581Z,15.28
2022-10-13T08:30:12.377Z,15.24
2022-10-13T08:31:14.158Z,15.18
2022-10-13T08:32:16.705Z,15.11
2022-10-13T08:33:18.399Z,15.02
2022-10-13T08:34:20.770Z,15.06
2022-10-13T08:35:22.313Z,15.13
2022-10-13T08:36:24.970Z,15.14
2022-10-13T08:37:26.477Z,15.00
2022-10-13T08:38:28.140Z,14.97
2022-10-13T08:39:30.099Z,15.03
2022-10-13T08:40:31.950Z,15.03
2022-10-13T08:41:39.154Z,15.00
2022-10-13T08:42:44.012Z,15.09
2022-10-13T08:44:33.657Z,15.04
2022-10-13T08:47:00.646Z,15.06
2022-10-13T08:48:07.526Z,15.08
2022-10-13T08:49:09.159Z,15.11
2022-10-13T08:50:15.167Z,15.19
2022-10-13T08:51:17.274Z,15.28
2022-10-13T08:52:23.495Z,15.24
2022-10-13T08:53:33.210Z,15.30
2022-10-13T08:54:34.787Z,15.27
2022-10-13T08:55:48.684Z,15.19
2022-10-13T08:56:51.191Z,15.21
2022-10-13T08:57:52.964Z,15.24
2022-10-13T08:58:56.851Z,15.25
2022-10-13T08:59:58.493Z,15.21
2022-10-13T09:01:08.802Z,15.27
2022-10-13T09:02:22.221Z,15.35
2022-10-13T09:03:27.552Z,15.46
2022-10-13T09:04:36.331Z,15.56
2022-10-13T09:05:50.147Z,15.60
2022-10-13T09:07:20.847Z,15.57
2022-10-13T09:08:25.175Z,15.49
2022-10-13T09:09:26.701Z,15.43
2022-10-13T09:10:28.231Z,15.38
2022-10-13T09:11:33.991Z,15.32
2022-10-13T09:12:35.523Z,15.38
2022-10-13T09:13:37.177Z,15.45
2022-10-13T09:14:41.090Z,15.60
2022-10-13T09:15:47.418Z,15.75
2022-10-13T09:16:50.680Z,15.87
2022-10-13T09:18:13.473Z,15.92
2022-10-13T09:19:27.328Z,15.85
2022-10-13T09:20:28.900Z,15.81
2022-10-13T09:21:30.664Z,15.82
2022-10-13T09:22:37.582Z,15.83
2022-10-13T09:23:41.807Z,15.96
2022-10-13T09:24:43.675Z,16.09
2022-10-13T09:25:50.577Z,16.14
2022-10-13T09:27:04.899Z,16.18
2022-10-13T09:28:30.630Z,16.24
2022-10-13T09:29:32.401Z,16.31
2022-10-13T09:30:44.853Z,16.34
2022-10-13T09:31:46.730Z,16.37
2022-10-13T09:32:48.345Z,16.38
2022-10-13T09:34:00.772Z,16.45
2022-10-13T09:35:21.739Z,16.47
2022-10-13T09:36:23.283Z,16.48
2022-10-13T09:37:26.309Z,16.46
2022-10-13T09:38:28.980Z,16.53
2022-10-13T09:39:32.557Z,16.59
2022-10-13T09:40:34.383Z,16.49
2022-10-13T09:41:36.327Z,16.46
2022-10-13T09:42:38.502Z,16.53
2022-10-13T09:43:45.909Z,16.53
2022-10-13T09:44:56.617Z,16.61
2022-10-13T09:45:59.432Z,16.63
2022-10-13T09:47:04.339Z,16.67
2022-10-13T09:48:14.643Z,16.74
2022-10-13T09:49:31.739Z,16.73
2022-10-13T09:50:35.848Z,16.75
2022-10-13T09:51:44.823Z,16.78
2022-10-13T09:52:47.707Z,16.77
2022-10-13T09:53:49.414Z,16.69
2022-10-13T09:54:58.522Z,16.48
2022-10-13T09:56:26.714Z,16.37
2022-10-13T09:57:34.412Z,16.40
2022-10-13T09:58:40.967Z,16.49
2022-10-13T10:00:04.497Z,16.59
2022-10-13T10:01:07.293Z,16.55
2022-10-13T10:02:59.918Z,16.54
2022-10-13T10:04:06.491Z,16.54
2022-10-13T10:05:23.608Z,16.57
2022-10-13T10:06:27.718Z,16.63
2022-10-13T10:07:32.910Z,16.62
2022-10-13T10:09:04.838Z,16.58
2022-10-13T10:10:18.870Z,16.78
2022-10-13T10:11:29.354Z,16.87
2022-10-13T10:12:34.782Z,16.96
2022-10-13T10:13:36.737Z,16.99
2022-10-13T10:14:38.747Z,16.95
2022-10-13T10:15:58.738Z,17.08
2022-10-13T10:17:09.583Z,17.29
2022-10-13T10:18:25.299Z,17.33
2022-10-13T10:19:39.424Z,17.43
2022-10-13T10:20:45.039Z,17.51
2022-10-13T10:22:10.591Z,17.56
2022-10-13T10:23:15.189Z,17.61
2022-10-13T10:24:34.351Z,17.67
2022-10-13T10:25:49.420Z,17.69
2022-10-13T10:27:08.036Z,17.61
2022-10-13T10:28:43.024Z,17.59
2022-10-13T10:29:58.516Z,17.56
2022-10-13T10:31:25.003Z,17.42
2022-10-13T10:32:35.568Z,17.50
2022-10-13T10:34:15.358Z,17.49
2022-10-13T10:35:32.290Z,17.25
2022-10-13T10:36:53.393Z,16.98
2022-10-13T10:38:03.780Z,16.96
2022-10-13T10:39:17.495Z,17.03
2022-10-13T10:40:56.255Z,17.19
2022-10-13T10:42:04.217Z,17.26
2022-10-13T10:43:18.183Z,17.37
2022-10-13T10:44:35.314Z,17.40
2022-10-13T10:45:39.559Z,17.34
2022-10-13T10:46:46.976Z,17.35
2022-10-13T10:47:53.918Z,17.31
2022-10-13T10:49:02.055Z,17.31
2022-10-13T10:50:07.653Z,17.28
2022-10-13T10:51:11.676Z,17.31
2022-10-13T10:52:24.792Z,17.33
2022-10-13T10:53:55.193Z,17.37
2022-10-13T10:55:37.471Z,17.45
2022-10-13T10:56:54.359Z,17.50
2022-10-13T10:58:09.177Z,17.54
2022-10-13T10:59:22.664Z,17.58
2022-10-13T11:00:24.809Z,17.61
2022-10-13T11:01:26.404Z,17.68
2022-10-13T11:02:55.836Z,17.72
2022-10-13T11:04:13.445Z,17.82
2022-10-13T11:05:16.657Z,17.82
2022-10-13T11:06:18.115Z,17.85
2022-10-13T11:07:22.481Z,17.64
2022-10-13T11:08:38.791Z,17.54
2022-10-13T11:09:43.310Z,17.53
2022-10-13T11:10:44.815Z,17.59
2022-10-13T11:11:46.421Z,17.69
2022-10-13T11:13:18.428Z,17.66
2022-10-13T11:14:30.480Z,17.66
2022-10-13T11:15:43.497Z,17.75
2022-10-13T11:17:24.020Z,17.86
2022-10-13T11:18:59.303Z,18.01
2022-10-13T11:20:00.948Z,18.10
2022-10-13T11:21:02.459Z,18.14
2022-10-13T11:22:03.908Z,18.22
2022-10-13T11:23:05.399Z,18.26
2022-10-13T11:24:36.327Z,18.34
2022-10-13T11:25:46.309Z,18.27
2022-10-13T11:26:47.905Z,18.27
2022-10-13T11:27:49.489Z,18.27
2022-10-13T11:28:51.125Z,18.26
2022-10-13T11:29:58.671Z,18.14
2022-10-13T11:31:15.184Z,18.08
2022-10-13T11:32:26.112Z,17.97
2022-10-13T11:33:34.850Z,17.91
2022-10-13T11:34:37.002Z,17.99
2022-10-13T11:35:38.678Z,18.03
2022-10-13T11:36:55.591Z,17.99
2022-10-13T11:38:07.797Z,17.97
2022-10-13T11:40:56.803Z,18.00
2022-10-13T11:42:19.689Z,17.82
2022-10-13T11:43:40.736Z,17.55
2022-10-13T11:45:17.566Z,17.43
2022-10-13T11:46:31.219Z,17.43
2022-10-13T11:48:03.690Z,17.49
2022-10-13T11:49:20.557Z,17.56
2022-10-13T11:50:51.243Z,17.55
2022-10-13T11:52:25.460Z,17.65
2022-10-13T11:53:33.942Z,17.71
2022-10-13T11:55:03.455Z,17.89
2022-10-13T11:56:05.094Z,17.96
2022-10-13T11:57:24.467Z,18.02
2022-10-13T11:58:28.774Z,17.99
2022-10-13T11:59:36.721Z,18.00
2022-10-13T12:00:38.337Z,17.91
2022-10-13T12:01:44.645Z,17.83
2022-10-13T12:02:53.513Z,17.75
2022-10-13T12:03:55.151Z,17.76
2022-10-13T12:05:19.765Z,17.71
2022-10-13T12:06:25.120Z,17.68
2022-10-13T12:07:32.101Z,17.68
2022-10-13T12:08:36.064Z,17.63
2022-10-13T12:09:49.285Z,17.62
2022-10-13T12:10:57.373Z,17.62
2022-10-13T12:12:04.868Z,17.65
2022-10-13T12:13:07.415Z,17.63
2022-10-13T12:14:24.393Z,17.49
2022-10-13T12:15:37.942Z,17.64
2022-10-13T12:16:52.526Z,17.75
2022-10-13T12:17:54.076Z,17.79
2022-10-13T12:19:08.194Z,17.94
2022-10-13T12:20:26.363Z,18.05
2022-10-13T12:21:27.900Z,18.09
2022-10-13T12:22:30.161Z,18.12
2022-10-13T12:23:33.158Z,18.26
2022-10-13T12:24:34.686Z,18.22
2022-10-13T12:25:36.297Z,18.10
2022-10-13T12:26:37.923Z,18.04
2022-10-13T12:27:47.782Z,18.01
2022-10-13T12:28:56.756Z,18.01
2022-10-13T12:30:02.790Z,18.02
2022-10-13T12:31:04.700Z,17.99
2022-10-13T12:32:24.493Z,17.76
2022-10-13T12:33:30.555Z,17.71
2022-10-13T12:34:35.104Z,17.84
2022-10-13T12:35:36.680Z,17.97
2022-10-13T12:36:38.288Z,18.12
2022-10-13T12:37:39.921Z,18.24
2022-10-13T12:38:47.134Z,18.25
2022-10-13T12:39:49.410Z,18.20
2022-10-13T12:40:53.538Z,18.21
2022-10-13T12:41:56.069Z,18.07
2022-10-13T12:42:58.164Z,18.07
2022-10-13T12:44:03.884Z,18.04
2022-10-13T12:45:20.342Z,17.96
2022-10-13T12:46:55.568Z,17.72
2022-10-13T12:47:57.132Z,17.65
2022-10-13T12:49:08.236Z,17.67
2022-10-13T12:50:25.666Z,17.64
2022-10-13T12:51:28.087Z,17.73
2022-10-13T12:52:30.427Z,17.88
2022-10-13T12:53:32.701Z,18.01
2022-10-13T12:54:37.969Z,18.13
2022-10-13T12:55:51.553Z,18.23
2022-10-13T12:56:56.772Z,18.35
2022-10-13T12:57:58.474Z,18.39
2022-10-13T12:59:00.716Z,18.43
2022-10-13T13:00:19.791Z,18.49
2022-10-13T13:01:28.557Z,18.52
2022-10-13T13:02:33.132Z,18.56
2022-10-13T13:03:37.215Z,18.55
2022-10-13T13:04:42.381Z,18.48
2022-10-13T13:05:50.780Z,18.35
2022-10-13T13:06:54.365Z,18.32
2022-10-13T13:07:55.886Z,18.24
2022-10-13T13:09:12.625Z,18.09
2022-10-13T13:10:17.943Z,18.02
2022-10-13T13:11:39.121Z,17.96
2022-10-13T13:12:41.725Z,17.90
2022-10-13T13:13:43.272Z,17.88
2022-10-13T13:14:50.982Z,17.87
2022-10-13T13:15:52.694Z,17.89
2022-10-13T13:17:09.220Z,17.96
2022-10-13T13:18:32.007Z,17.94
2022-10-13T13:19:35.305Z,17.94
2022-10-13T13:20:37.868Z,18.02
2022-10-13T13:21:39.398Z,18.13
2022-10-13T13:22:40.940Z,18.22
2022-10-13T13:23:50.966Z,18.27
2022-10-13T13:24:55.547Z,18.37
2022-10-13T13:26:08.013Z,18.36
2022-10-13T13:27:40.191Z,18.46
2022-10-13T13:28:50.639Z,18.54
2022-10-13T13:29:55.926Z,18.54
2022-10-13T13:30:58.320Z,18.49
2022-10-13T13:31:59.834Z,18.43
2022-10-13T13:33:01.374Z,18.25
2022-10-13T13:34:02.907Z,18.22
2022-10-13T13:35:05.754Z,18.27
2022-10-13T13:36:19.580Z,18.30
2022-10-13T13:37:31.705Z,18.38
2022-10-13T13:38:33.224Z,18.32
2022-10-13T13:39:34.749Z,18.28
2022-10-13T13:40:36.304Z,18.29
2022-10-13T13:41:37.813Z,18.31
2022-10-13T13:42:39.391Z,18.35
2022-10-13T13:43:41.109Z,18.35
2022-10-13T13:44:42.701Z,18.19
2022-10-13T13:45:44.401Z,18.15
2022-10-13T13:46:45.918Z,18.21
2022-10-13T13:47:48.035Z,18.25
2022-10-13T13:48:50.050Z,18.20
2022-10-13T13:49:56.362Z,18.14
2022-10-13T13:50:57.995Z,18.08
2022-10-13T13:51:59.489Z,18.08
2022-10-13T13:53:01.477Z,18.14
2022-10-13T13:54:03.659Z,18.24
2022-10-13T13:55:06.489Z,18.37
2022-10-13T13:56:13.640Z,18.48
2022-10-13T13:57:15.317Z,18.54
2022-10-13T13:58:16.830Z,18.56
2022-10-13T13:59:18.343Z,18.62
2022-10-13T14:00:20.275Z,18.69
2022-10-13T14:01:22.806Z,18.69
2022-10-13T14:02:24.451Z,18.64
2022-10-13T14:03:26.030Z,18.66
2022-10-13T14:04:27.616Z,18.61
2022-10-13T14:05:29.129Z,18.59
2022-10-13T14:06:31.482Z,18.61
2022-10-13T14:07:33.278Z,18.61
2022-10-13T14:08:42.027Z,18.70
2022-10-13T14:09:44.377Z,18.75
2022-10-13T14:10:45.913Z,18.83
2022-10-13T14:11:47.578Z,18.88
2022-10-13T14:12:49.107Z,18.93
2022-10-13T14:13:50.690Z,18.98